PILOTS ONLINE: 328    ATC ONLINE: 34

KSMO - Santa Monica Municipal Airport

Location

City Santa Monica
Country  United States
Latitude 34° 0' 56" N
Longitude 118° 27' 3" W
Elevation 177 ft
Type Small Airport

Runways

03/21 4973 ft / 150 ft

Weather

METAR
2014/07/29 09:51
KSMO 290951Z AUTO 14003KT 10SM CLR 21/17 A3002 RMK AO2 SLP164 T02110167
TAF
No TAF available

Outbound flights

Inbound flights